Time;durP1;ratioP1;P1;durP2;ratioP2;P2;SDS_P1;SDS_P2;PMS_P1;PMS_P2;Temp;Humidity;BMP_temperature;BMP_pressure;BME280_temperature;BME280_humidity;BME280_pressure;Samples;Min_cycle;Max_cycle;Signal;HPM_P1;HPM_P2
2023/06/30 00:00:30;;;;;;;4.63;3.20;;;;;;;;;;6241921;28;20053;-74
2023/06/30 00:03:33;;;;;;;5.28;3.40;;;;;;;;;;6239329;28;20058;-75
2023/06/30 00:06:34;;;;;;;6.25;3.63;;;;;;;;;;6242815;28;20351;-73
2023/06/30 00:09:36;;;;;;;6.57;3.90;;;;;;;;;;6241931;28;20686;-74
2023/06/30 00:12:37;;;;;;;6.78;3.65;;;;;;;;;;6241014;28;20057;-74
2023/06/30 00:15:39;;;;;;;5.03;3.45;;;;;;;;;;6240347;28;20355;-75
2023/06/30 00:18:42;;;;;;;5.88;3.40;;;;;;;;;;6245857;28;20049;-74
2023/06/30 00:21:45;;;;;;;5.50;3.63;;;;;;;;;;6242702;28;20292;-74
2023/06/30 00:24:47;;;;;;;5.50;3.80;;;;;;;;;;6241254;28;20064;-74
2023/06/30 00:27:48;;;;;;;5.90;3.65;;;;;;;;;;6241284;28;20073;-74
2023/06/30 00:30:50;;;;;;;7.07;3.78;;;;;;;;;;6241987;28;20050;-75
2023/06/30 00:33:53;;;;;;;6.18;3.85;;;;;;;;;;6244252;28;20277;-74
2023/06/30 00:36:54;;;;;;;7.72;4.28;;;;;;;;;;6242370;28;20187;-75
2023/06/30 00:39:55;;;;;;;7.97;4.22;;;;;;;;;;6241361;28;20076;-74
2023/06/30 00:42:58;;;;;;;8.77;4.78;;;;;;;;;;6243900;28;20055;-76
2023/06/30 00:46:00;;;;;;;5.78;4.43;;;;;;;;;;6244517;28;20119;-74
2023/06/30 00:49:03;;;;;;;8.10;4.38;;;;;;;;;;6239642;28;20049;-74
2023/06/30 00:52:05;;;;;;;7.22;3.97;;;;;;;;;;6240305;28;20391;-75
2023/06/30 00:55:08;;;;;;;7.03;4.05;;;;;;;;;;6239697;28;20148;-75
2023/06/30 00:58:09;;;;;;;6.22;4.22;;;;;;;;;;6241532;28;20053;-75
2023/06/30 01:01:13;;;;;;;8.13;4.30;;;;;;;;;;6242374;28;20049;-74
2023/06/30 01:04:18;;;;;;;7.93;4.85;;;;;;;;;;6241709;28;20045;-77
2023/06/30 01:07:22;;;;;;;6.97;4.07;;;;;;;;;;6239779;28;20089;-75
2023/06/30 01:10:25;;;;;;;7.97;5.32;;;;;;;;;;6240248;28;20065;-77
2023/06/30 01:13:26;;;;;;;6.88;4.60;;;;;;;;;;6238543;28;20144;-75
2023/06/30 01:16:29;;;;;;;10.43;5.25;;;;;;;;;;6240113;28;20065;-75
2023/06/30 01:19:35;;;;;;;11.30;4.77;;;;;;;;;;6241088;28;20061;-74
2023/06/30 01:22:40;;;;;;;8.43;5.38;;;;;;;;;;6240749;28;20073;-75
2023/06/30 01:25:41;;;;;;;8.35;5.07;;;;;;;;;;6239344;28;20081;-75
2023/06/30 01:28:43;;;;;;;8.50;5.45;;;;;;;;;;6243948;28;20057;-75
2023/06/30 01:31:45;;;;;;;10.07;6.00;;;;;;;;;;6239615;28;20042;-75
2023/06/30 01:34:48;;;;;;;11.82;5.15;;;;;;;;;;6239910;28;20064;-76
2023/06/30 01:37:50;;;;;;;8.73;5.93;;;;;;;;;;6243453;28;20065;-74
2023/06/30 01:40:52;;;;;;;8.63;5.78;;;;;;;;;;6241592;28;20056;-77
2023/06/30 01:43:54;;;;;;;9.43;6.50;;;;;;;;;;6239237;28;20057;-75
2023/06/30 01:46:55;;;;;;;10.85;6.22;;;;;;;;;;6240890;28;20096;-74
2023/06/30 01:49:58;;;;;;;9.48;6.68;;;;;;;;;;6244890;28;20054;-75
2023/06/30 01:53:00;;;;;;;13.02;7.03;;;;;;;;;;6244732;28;20064;-74
2023/06/30 01:56:02;;;;;;;9.38;6.82;;;;;;;;;;6244200;28;20365;-74
2023/06/30 01:59:03;;;;;;;9.90;7.18;;;;;;;;;;6244527;28;20113;-77
2023/06/30 02:02:05;;;;;;;11.43;7.82;;;;;;;;;;6248833;28;20053;-76
2023/06/30 02:05:08;;;;;;;10.95;7.95;;;;;;;;;;6247228;28;20053;-75
2023/06/30 02:08:09;;;;;;;;;;;;;;;;;;6247012;28;20061;-75
2023/06/30 02:11:11;;;;;;;10.45;8.43;;;;;;;;;;6246224;28;19926;-76
2023/06/30 02:14:12;;;;;;;10.80;7.82;;;;;;;;;;6248498;28;20057;-75
2023/06/30 02:17:14;;;;;;;9.20;7.90;;;;;;;;;;6244619;28;20056;-74
2023/06/30 02:20:17;;;;;;;10.05;7.95;;;;;;;;;;6249732;28;20057;-74
2023/06/30 02:23:19;;;;;;;10.75;8.63;;;;;;;;;;6251620;28;20057;-77
2023/06/30 02:26:20;;;;;;;9.43;8.43;;;;;;;;;;6248179;28;20053;-75
2023/06/30 02:29:22;;;;;;;11.15;9.30;;;;;;;;;;6246000;28;20054;-75
2023/06/30 02:32:24;;;;;;;11.00;8.48;;;;;;;;;;6246211;28;20061;-75
2023/06/30 02:35:27;;;;;;;11.05;8.10;;;;;;;;;;6247676;28;20053;-74
2023/06/30 02:38:28;;;;;;;11.38;8.02;;;;;;;;;;6246371;28;20049;-75
2023/06/30 02:41:29;;;;;;;11.63;7.38;;;;;;;;;;6249008;28;20372;-75
2023/06/30 02:44:31;;;;;;;10.52;7.47;;;;;;;;;;6249634;28;20058;-75
2023/06/30 02:47:32;;;;;;;11.27;7.90;;;;;;;;;;6248368;28;20265;-75
2023/06/30 02:50:35;;;;;;;11.15;7.20;;;;;;;;;;6245977;28;20065;-74
2023/06/30 02:53:36;;;;;;;11.43;7.47;;;;;;;;;;6243937;28;20061;-75
2023/06/30 02:56:38;;;;;;;9.40;7.13;;;;;;;;;;6242412;28;20685;-75
2023/06/30 02:59:39;;;;;;;16.45;8.27;;;;;;;;;;6243167;28;20051;-75
2023/06/30 03:02:41;;;;;;;12.50;6.68;;;;;;;;;;6243922;28;20084;-75
2023/06/30 03:05:44;;;;;;;12.82;7.75;;;;;;;;;;6245364;28;20097;-76
2023/06/30 03:08:45;;;;;;;9.43;8.18;;;;;;;;;;6245065;28;20065;-75
2023/06/30 03:11:46;;;;;;;10.43;8.73;;;;;;;;;;6243136;28;20056;-75
2023/06/30 03:14:48;;;;;;;10.90;8.45;;;;;;;;;;6240336;28;20053;-75
2023/06/30 03:17:49;;;;;;;11.52;8.70;;;;;;;;;;6242505;28;20269;-75
2023/06/30 03:20:54;;;;;;;14.52;8.07;;;;;;;;;;6243745;28;20336;-74
2023/06/30 03:23:56;;;;;;;9.90;8.27;;;;;;;;;;6243490;28;20058;-75
2023/06/30 03:26:57;;;;;;;8.70;7.60;;;;;;;;;;6245138;28;20402;-76
2023/06/30 03:29:59;;;;;;;12.40;8.35;;;;;;;;;;6244675;28;20108;-75
2023/06/30 03:33:00;;;;;;;10.70;7.63;;;;;;;;;;6242879;28;20065;-76
2023/06/30 03:36:03;;;;;;;11.80;8.27;;;;;;;;;;6246805;28;20124;-75
2023/06/30 03:39:05;;;;;;;10.85;7.70;;;;;;;;;;6243313;28;20058;-76
2023/06/30 03:42:07;;;;;;;12.57;7.78;;;;;;;;;;6244793;28;20123;-75
2023/06/30 03:45:09;;;;;;;9.00;7.45;;;;;;;;;;6241029;28;20076;-76
2023/06/30 03:48:11;;;;;;;9.68;7.78;;;;;;;;;;6243513;28;20052;-75
2023/06/30 03:51:13;;;;;;;10.65;8.00;;;;;;;;;;6244185;28;20117;-75
2023/06/30 03:54:15;;;;;;;13.85;8.40;;;;;;;;;;6242642;28;20057;-74
2023/06/30 03:57:16;;;;;;;12.43;8.98;;;;;;;;;;6240741;28;20049;-74
2023/06/30 04:00:18;;;;;;;14.65;9.57;;;;;;;;;;6244041;28;20057;-74
2023/06/30 04:03:20;;;;;;;12.07;7.97;;;;;;;;;;6241294;28;20080;-74
2023/06/30 04:06:22;;;;;;;13.45;8.60;;;;;;;;;;6241474;28;20125;-76
2023/06/30 04:09:24;;;;;;;12.52;8.20;;;;;;;;;;6242126;28;20042;-76
2023/06/30 04:12:25;;;;;;;14.20;7.95;;;;;;;;;;6243902;28;20116;-76
2023/06/30 04:15:27;;;;;;;12.02;7.35;;;;;;;;;;6244819;28;20060;-75
2023/06/30 04:18:28;;;;;;;9.27;7.25;;;;;;;;;;6241943;28;20353;-75
2023/06/30 04:21:32;;;;;;;12.90;7.43;;;;;;;;;;6241291;28;20045;-75
2023/06/30 04:24:33;;;;;;;8.75;7.65;;;;;;;;;;6239133;28;20053;-75
2023/06/30 04:27:35;;;;;;;11.35;7.80;;;;;;;;;;6245451;28;20083;-75
2023/06/30 04:30:37;;;;;;;9.73;7.80;;;;;;;;;;6239475;28;20065;-76
2023/06/30 04:33:38;;;;;;;11.77;7.47;;;;;;;;;;6242910;28;20045;-77
2023/06/30 04:36:41;;;;;;;12.38;8.52;;;;;;;;;;6241840;28;20061;-75
2023/06/30 04:39:43;;;;;;;10.43;7.50;;;;;;;;;;6240751;28;20059;-77
2023/06/30 04:42:45;;;;;;;10.73;8.35;;;;;;;;;;6240346;28;20447;-76
2023/06/30 04:45:47;;;;;;;10.40;7.13;;;;;;;;;;6240827;28;20322;-78
2023/06/30 04:48:48;;;;;;;10.40;6.85;;;;;;;;;;6241738;28;20301;-75
2023/06/30 04:51:51;;;;;;;10.15;6.93;;;;;;;;;;6240792;28;20092;-76
2023/06/30 04:54:54;;;;;;;10.40;6.78;;;;;;;;;;6239324;28;20049;-76
2023/06/30 04:57:56;;;;;;;11.85;6.22;;;;;;;;;;6240826;28;20052;-75
2023/06/30 05:00:57;;;;;;;11.48;6.43;;;;;;;;;;6239046;28;20080;-76
2023/06/30 05:03:59;;;;;;;10.27;5.97;;;;;;;;;;6242339;28;20057;-75
2023/06/30 05:07:02;;;;;;;10.30;6.35;;;;;;;;;;6239170;28;20049;-75
2023/06/30 05:10:03;;;;;;;9.40;6.10;;;;;;;;;;6241470;28;20046;-75
2023/06/30 05:13:05;;;;;;;8.13;5.93;;;;;;;;;;6241214;28;20480;-75
2023/06/30 05:16:06;;;;;;;7.95;5.78;;;;;;;;;;6241161;28;20337;-75
2023/06/30 05:19:08;;;;;;;8.02;5.95;;;;;;;;;;6234963;28;20164;-75
2023/06/30 05:22:11;;;;;;;10.05;6.53;;;;;;;;;;6239536;28;20061;-75
2023/06/30 05:25:13;;;;;;;9.85;6.70;;;;;;;;;;6240111;28;20045;-75
2023/06/30 05:28:14;;;;;;;9.88;6.68;;;;;;;;;;6244360;28;20097;-75
2023/06/30 05:31:16;;;;;;;9.32;6.55;;;;;;;;;;6244976;28;20060;-75
2023/06/30 05:34:17;;;;;;;10.63;6.93;;;;;;;;;;6244738;28;20281;-75
2023/06/30 05:37:20;;;;;;;8.77;6.90;;;;;;;;;;6242540;28;20104;-75
2023/06/30 05:40:21;;;;;;;11.90;7.68;;;;;;;;;;6243288;28;20061;-76
2023/06/30 05:43:23;;;;;;;14.23;8.43;;;;;;;;;;6247149;28;20330;-78
2023/06/30 05:46:24;;;;;;;12.77;8.45;;;;;;;;;;6244293;28;20049;-76
2023/06/30 05:49:27;;;;;;;8.60;7.57;;;;;;;;;;6244982;28;20297;-75
2023/06/30 05:52:29;;;;;;;16.90;7.57;;;;;;;;;;6247845;28;20083;-75
2023/06/30 05:55:31;;;;;;;9.25;7.22;;;;;;;;;;6247224;28;20042;-75
2023/06/30 05:58:32;;;;;;;12.00;8.00;;;;;;;;;;6244263;28;20057;-76
2023/06/30 06:01:36;;;;;;;11.00;8.32;;;;;;;;;;6246697;28;20080;-75
2023/06/30 06:04:38;;;;;;;10.93;7.97;;;;;;;;;;6244216;28;20049;-75
2023/06/30 06:07:41;;;;;;;11.10;7.70;;;;;;;;;;6242915;28;20057;-77
2023/06/30 06:10:44;;;;;;;10.77;7.60;;;;;;;;;;6243851;28;20346;-75
2023/06/30 06:13:45;;;;;;;;;;;;;;;;;;6246438;28;20116;-75
2023/06/30 06:16:47;;;;;;;13.85;7.78;;;;;;;;;;6245939;28;20094;-76
2023/06/30 06:19:48;;;;;;;13.80;7.80;;;;;;;;;;6245107;28;20046;-77
2023/06/30 06:22:51;;;;;;;11.75;7.35;;;;;;;;;;6245772;28;20054;-76
2023/06/30 06:25:53;;;;;;;9.43;6.90;;;;;;;;;;6245562;28;20242;-77
2023/06/30 06:28:54;;;;;;;9.57;7.57;;;;;;;;;;6243001;28;20057;-76
2023/06/30 06:31:55;;;;;;;11.25;7.53;;;;;;;;;;6242329;28;20342;-76
2023/06/30 06:34:57;;;;;;;10.45;8.40;;;;;;;;;;6245289;28;20089;-77
2023/06/30 06:38:00;;;;;;;10.93;8.07;;;;;;;;;;6245620;28;20061;-76
2023/06/30 06:41:01;;;;;;;10.60;7.95;;;;;;;;;;6245671;28;20053;-76
2023/06/30 06:44:03;;;;;;;8.50;7.45;;;;;;;;;;6244748;28;20056;-76
2023/06/30 06:47:23;;;;;;;15.48;7.47;;;;;;;;;;6244169;28;20079;-76
2023/06/30 06:50:24;;;;;;;9.80;7.55;;;;;;;;;;6240701;28;20056;-76
2023/06/30 06:53:28;;;;;;;9.73;7.10;;;;;;;;;;6244997;28;20100;-76
2023/06/30 06:56:29;;;;;;;7.28;6.45;;;;;;;;;;6240904;28;20345;-78
2023/06/30 06:59:31;;;;;;;9.57;6.40;;;;;;;;;;6247250;28;20345;-78
2023/06/30 07:02:32;;;;;;;13.23;7.47;;;;;;;;;;6243778;28;20061;-78
2023/06/30 07:05:34;;;;;;;11.80;7.03;;;;;;;;;;6245892;28;20058;-78
2023/06/30 07:08:37;;;;;;;7.70;6.60;;;;;;;;;;6244639;28;20053;-78
2023/06/30 07:11:39;;;;;;;9.73;7.60;;;;;;;;;;6243006;28;20357;-78
2023/06/30 07:14:40;;;;;;;9.75;7.35;;;;;;;;;;6242607;28;20041;-78
2023/06/30 07:17:42;;;;;;;10.93;7.78;;;;;;;;;;6244357;28;20057;-78
2023/06/30 07:20:43;;;;;;;15.73;7.63;;;;;;;;;;6244294;28;20058;-78
2023/06/30 07:23:48;;;;;;;10.40;7.05;;;;;;;;;;6240907;28;20211;-78
2023/06/30 07:26:50;;;;;;;12.05;7.05;;;;;;;;;;6242587;28;20241;-78
2023/06/30 07:29:51;;;;;;;10.75;7.45;;;;;;;;;;6246796;28;20084;-77
2023/06/30 07:32:53;;;;;;;10.93;7.00;;;;;;;;;;6243489;28;20053;-78
2023/06/30 07:35:55;;;;;;;11.73;6.95;;;;;;;;;;6245303;28;20065;-78
2023/06/30 07:38:57;;;;;;;10.95;6.28;;;;;;;;;;6245954;28;20053;-78
2023/06/30 07:41:59;;;;;;;9.35;6.97;;;;;;;;;;6247581;28;20064;-77
2023/06/30 07:45:00;;;;;;;9.52;6.75;;;;;;;;;;6243632;28;20075;-78
2023/06/30 07:48:02;;;;;;;8.15;6.35;;;;;;;;;;6242204;28;20333;-78
2023/06/30 07:51:03;;;;;;;10.68;7.53;;;;;;;;;;6242769;28;20056;-78
2023/06/30 07:54:07;;;;;;;9.30;6.30;;;;;;;;;;6243513;28;20061;-77
2023/06/30 07:57:08;;;;;;;8.50;6.15;;;;;;;;;;6240553;28;20073;-77
2023/06/30 08:00:11;;;;;;;8.52;6.32;;;;;;;;;;6243759;28;20149;-77
2023/06/30 08:03:12;;;;;;;11.43;6.68;;;;;;;;;;6242680;28;20065;-77
2023/06/30 08:06:14;;;;;;;11.30;7.03;;;;;;;;;;6243714;28;20072;-77
2023/06/30 08:09:17;;;;;;;8.48;5.65;;;;;;;;;;6245906;28;20060;-75
2023/06/30 08:12:18;;;;;;;9.70;6.10;;;;;;;;;;6246023;28;20057;-76
2023/06/30 08:15:20;;;;;;;8.80;6.38;;;;;;;;;;6242227;28;20049;-75
2023/06/30 08:18:21;;;;;;;10.60;6.03;;;;;;;;;;6243918;28;20052;-75
2023/06/30 08:21:23;;;;;;;7.43;6.28;;;;;;;;;;6243251;28;20041;-76
2023/06/30 08:24:26;;;;;;;10.60;6.15;;;;;;;;;;6243313;28;20370;-75
2023/06/30 08:27:27;;;;;;;9.52;6.20;;;;;;;;;;6239285;28;20215;-75
2023/06/30 08:30:28;;;;;;;8.23;5.65;;;;;;;;;;6243637;28;20061;-75
2023/06/30 08:33:30;;;;;;;8.80;6.40;;;;;;;;;;6242602;28;20095;-75
2023/06/30 08:36:32;;;;;;;8.18;6.32;;;;;;;;;;6240715;28;20071;-76
2023/06/30 08:39:35;;;;;;;14.27;6.93;;;;;;;;;;6243914;28;20049;-78
2023/06/30 08:42:37;;;;;;;10.10;6.32;;;;;;;;;;6240192;28;20056;-77
2023/06/30 08:45:40;;;;;;;12.50;7.05;;;;;;;;;;6242302;28;20495;-76
2023/06/30 08:48:41;;;;;;;9.55;6.55;;;;;;;;;;6239553;28;20049;-76
2023/06/30 08:51:43;;;;;;;10.55;7.85;;;;;;;;;;6242179;28;20046;-74
2023/06/30 08:54:46;;;;;;;11.23;7.38;;;;;;;;;;6242274;28;20041;-75
2023/06/30 08:57:48;;;;;;;10.40;8.10;;;;;;;;;;6242028;28;20057;-74
2023/06/30 09:00:49;;;;;;;11.25;8.05;;;;;;;;;;6241088;28;20060;-74
2023/06/30 09:03:51;;;;;;;10.98;8.82;;;;;;;;;;6238481;28;20112;-74
2023/06/30 09:06:53;;;;;;;12.02;9.18;;;;;;;;;;6242713;28;20057;-76
2023/06/30 09:09:57;;;;;;;11.35;8.90;;;;;;;;;;6238385;28;20049;-76
2023/06/30 09:12:59;;;;;;;11.25;8.65;;;;;;;;;;6240153;28;20057;-76
2023/06/30 09:16:04;;;;;;;14.85;9.52;;;;;;;;;;6239978;28;20581;-77
2023/06/30 09:19:06;;;;;;;13.52;10.88;;;;;;;;;;6240349;28;20132;-75
2023/06/30 09:22:09;;;;;;;20.85;13.38;;;;;;;;;;6243934;28;20053;-73
2023/06/30 09:25:26;;;;;;;16.25;13.65;;;;;;;;;;6241288;28;20057;-80
2023/06/30 09:28:34;;;;;;;22.70;16.60;;;;;;;;;;6241389;28;20057;-81
2023/06/30 09:31:36;;;;;;;20.52;17.08;;;;;;;;;;6241726;28;20332;-80
2023/06/30 09:34:38;;;;;;;24.90;20.42;;;;;;;;;;6239031;28;20060;-80
2023/06/30 09:37:41;;;;;;;28.23;22.30;;;;;;;;;;6238993;28;20057;-77
2023/06/30 09:40:42;;;;;;;;;;;;;;;;;;6240326;28;20060;-74
2023/06/30 09:43:45;;;;;;;30.23;24.38;;;;;;;;;;6243676;28;19924;-77
2023/06/30 09:46:47;;;;;;;38.22;26.73;;;;;;;;;;6240168;28;20053;-77
2023/06/30 09:49:48;;;;;;;33.30;26.45;;;;;;;;;;6242664;28;21350;-77
2023/06/30 09:52:50;;;;;;;33.35;26.42;;;;;;;;;;6238820;28;20246;-77
2023/06/30 09:55:52;;;;;;;39.05;27.27;;;;;;;;;;6239892;28;20219;-75
2023/06/30 09:58:57;;;;;;;39.92;27.83;;;;;;;;;;6243845;28;20053;-76
2023/06/30 10:01:59;;;;;;;57.97;31.77;;;;;;;;;;6242989;28;20044;-77
2023/06/30 10:05:01;;;;;;;57.25;29.50;;;;;;;;;;6240064;28;20062;-78
2023/06/30 10:08:02;;;;;;;43.60;27.42;;;;;;;;;;6243511;28;20073;-77
2023/06/30 10:11:04;;;;;;;45.58;26.75;;;;;;;;;;6246450;28;20053;-77
2023/06/30 10:14:07;;;;;;;46.13;27.67;;;;;;;;;;6249660;28;20045;-78
2023/06/30 10:17:09;;;;;;;1.67;1.50;;;;;;;;;;6246420;28;20184;-77
2023/06/30 10:20:11;;;;;;;1.83;1.52;;;;;;;;;;6248578;28;20895;-80
2023/06/30 10:23:12;;;;;;;2.50;2.30;;;;;;;;;;6243103;28;20069;-80
2023/06/30 10:26:14;;;;;;;1.23;1.08;;;;;;;;;;6247736;28;20346;-81
2023/06/30 10:29:18;;;;;;;2.38;1.38;;;;;;;;;;6247573;28;20045;-82
2023/06/30 10:32:21;;;;;;;2.22;2.03;;;;;;;;;;6243435;28;20054;-79
2023/06/30 10:35:22;;;;;;;5.00;3.63;;;;;;;;;;6247438;28;20076;-80
2023/06/30 10:38:23;;;;;;;;;;;;;;;;;;6249286;28;20060;-80
2023/06/30 10:41:25;;;;;;;0.47;0.47;;;;;;;;;;6248023;28;20228;-80
2023/06/30 10:44:38;;;;;;;2.08;1.75;;;;;;;;;;6249632;28;20042;-80
2023/06/30 10:47:40;;;;;;;1.58;1.48;;;;;;;;;;6243380;28;20403;-79
2023/06/30 10:50:41;;;;;;;3.40;1.63;;;;;;;;;;6246906;28;20061;-78
2023/06/30 10:53:43;;;;;;;1.58;1.48;;;;;;;;;;6242168;28;20103;-79
2023/06/30 10:56:45;;;;;;;1.20;1.10;;;;;;;;;;6242547;28;20050;-79
2023/06/30 10:59:48;;;;;;;1.35;1.13;;;;;;;;;;6245255;28;20058;-78
2023/06/30 11:02:50;;;;;;;1.30;1.20;;;;;;;;;;6241744;28;20065;-79
2023/06/30 11:05:51;;;;;;;2.40;1.75;;;;;;;;;;6244580;28;20057;-79
2023/06/30 11:08:59;;;;;;;1.48;1.08;;;;;;;;;;6245185;28;20071;-80
2023/06/30 11:12:01;;;;;;;1.55;1.08;;;;;;;;;;6243934;28;20058;-81
2023/06/30 11:15:04;;;;;;;29.23;22.55;;;;;;;;;;6244528;28;20070;-78
2023/06/30 11:18:07;;;;;;;43.20;27.52;;;;;;;;;;6246579;28;20087;-79
2023/06/30 11:21:08;;;;;;;39.78;28.70;;;;;;;;;;6249138;28;20057;-79
2023/06/30 11:24:14;;;;;;;43.58;29.95;;;;;;;;;;6246993;28;20707;-79
2023/06/30 11:27:16;;;;;;;44.03;29.23;;;;;;;;;;6248864;28;20041;-79
2023/06/30 11:30:19;;;;;;;45.60;28.90;;;;;;;;;;6244291;28;20273;-78
2023/06/30 11:33:20;;;;;;;55.00;31.33;;;;;;;;;;6246004;28;20049;-78
2023/06/30 11:36:22;;;;;;;44.97;29.30;;;;;;;;;;6245677;28;20460;-78
2023/06/30 11:39:23;;;;;;;50.58;31.98;;;;;;;;;;6246293;28;20057;-81
2023/06/30 11:42:25;;;;;;;57.25;34.25;;;;;;;;;;6247188;28;20057;-82
2023/06/30 11:45:28;;;;;;;59.60;35.00;;;;;;;;;;6250457;28;20325;-82
2023/06/30 11:48:31;;;;;;;60.30;34.33;;;;;;;;;;6247359;28;20052;-78
2023/06/30 11:51:33;;;;;;;;;;;;;;;;;;6249623;28;20048;-78
2023/06/30 11:54:34;;;;;;;69.03;37.70;;;;;;;;;;6245669;28;19928;-79
2023/06/30 11:57:36;;;;;;;74.93;37.45;;;;;;;;;;6248392;28;20097;-82
2023/06/30 12:00:43;;;;;;;69.25;38.63;;;;;;;;;;6245856;28;20045;-80
2023/06/30 12:03:44;;;;;;;72.00;38.75;;;;;;;;;;6247956;28;20124;-79
2023/06/30 12:06:46;;;;;;;74.93;40.20;;;;;;;;;;6247024;28;20053;-78
2023/06/30 12:09:59;;;;;;;75.00;41.28;;;;;;;;;;6244961;28;20290;-80
2023/06/30 12:13:00;;;;;;;66.53;39.92;;;;;;;;;;6246961;28;20049;-81
2023/06/30 12:16:04;;;;;;;66.95;37.30;;;;;;;;;;6244454;28;20045;-78
2023/06/30 12:19:06;;;;;;;63.22;35.92;;;;;;;;;;6242829;28;20356;-78
2023/06/30 12:22:08;;;;;;;55.75;33.63;;;;;;;;;;6245655;28;20084;-80
2023/06/30 12:25:11;;;;;;;49.90;28.77;;;;;;;;;;6244049;28;20108;-83
2023/06/30 12:28:13;;;;;;;41.00;27.90;;;;;;;;;;6244933;28;20057;-79
2023/06/30 12:31:15;;;;;;;43.55;27.13;;;;;;;;;;6245274;28;20049;-79
2023/06/30 12:34:31;;;;;;;38.90;24.40;;;;;;;;;;6243573;28;20666;-77
2023/06/30 12:37:32;;;;;;;38.92;23.38;;;;;;;;;;6243544;28;20129;-79
2023/06/30 12:40:34;;;;;;;40.55;23.48;;;;;;;;;;6244057;28;20218;-79
2023/06/30 12:43:35;;;;;;;38.95;24.20;;;;;;;;;;6246889;28;20064;-83
2023/06/30 12:46:38;;;;;;;39.20;23.85;;;;;;;;;;6245462;28;20325;-79
2023/06/30 12:49:39;;;;;;;29.83;20.63;;;;;;;;;;6244439;28;20187;-81
2023/06/30 12:52:41;;;;;;;32.83;20.55;;;;;;;;;;6242737;28;20041;-78
2023/06/30 12:55:42;;;;;;;29.25;19.80;;;;;;;;;;6247825;28;20683;-78
2023/06/30 12:58:44;;;;;;;24.73;17.20;;;;;;;;;;6239538;28;20364;-78
2023/06/30 13:01:47;;;;;;;25.90;16.55;;;;;;;;;;6246006;28;20053;-79
2023/06/30 13:04:49;;;;;;;21.38;15.93;;;;;;;;;;6241463;28;20077;-79
2023/06/30 13:07:50;;;;;;;17.70;13.07;;;;;;;;;;6242639;28;20056;-83
2023/06/30 13:10:51;;;;;;;16.80;12.20;;;;;;;;;;6243698;28;20072;-78
2023/06/30 13:13:53;;;;;;;17.50;12.52;;;;;;;;;;6241066;28;20057;-73
2023/06/30 13:16:56;;;;;;;17.85;12.20;;;;;;;;;;6241513;28;20112;-74
2023/06/30 13:19:57;;;;;;;16.43;12.60;;;;;;;;;;6241250;28;20108;-74
2023/06/30 13:22:59;;;;;;;18.63;12.45;;;;;;;;;;6244829;28;21725;-77
2023/06/30 13:26:00;;;;;;;17.83;12.18;;;;;;;;;;6244855;28;20053;-74
2023/06/30 13:29:03;;;;;;;17.27;12.80;;;;;;;;;;6241591;28;20111;-74
2023/06/30 13:32:06;;;;;;;16.50;12.13;;;;;;;;;;6242080;28;20265;-77
2023/06/30 13:35:08;;;;;;;18.13;12.55;;;;;;;;;;6241330;28;20045;-75
2023/06/30 13:38:10;;;;;;;20.63;13.68;;;;;;;;;;6239816;28;20053;-74
2023/06/30 13:41:12;;;;;;;17.75;13.57;;;;;;;;;;6240610;28;20051;-78
2023/06/30 13:44:13;;;;;;;19.20;13.35;;;;;;;;;;6245422;28;20068;-77
2023/06/30 13:47:16;;;;;;;18.48;13.52;;;;;;;;;;6251657;28;20061;-74
2023/06/30 13:50:18;;;;;;;17.27;13.70;;;;;;;;;;6244069;28;20767;-75
2023/06/30 13:53:20;;;;;;;19.83;13.93;;;;;;;;;;6246305;28;20050;-77
2023/06/30 13:56:23;;;;;;;15.98;13.73;;;;;;;;;;6246847;28;20441;-80
2023/06/30 13:59:24;;;;;;;18.00;14.57;;;;;;;;;;6245881;28;20056;-78
2023/06/30 14:02:27;;;;;;;16.95;14.90;;;;;;;;;;6243752;28;20057;-80
2023/06/30 14:05:28;;;;;;;16.20;14.50;;;;;;;;;;6247222;28;20109;-78
2023/06/30 14:08:30;;;;;;;17.05;14.23;;;;;;;;;;6247258;28;20472;-77
2023/06/30 14:11:31;;;;;;;18.83;14.85;;;;;;;;;;6247265;28;20270;-78
2023/06/30 14:14:33;;;;;;;18.08;14.05;;;;;;;;;;6247385;28;20068;-79
2023/06/30 14:17:35;;;;;;;15.70;13.88;;;;;;;;;;6245924;28;20369;-78
2023/06/30 14:20:37;;;;;;;15.27;13.25;;;;;;;;;;6245816;28;20124;-80
2023/06/30 14:23:38;;;;;;;19.83;14.00;;;;;;;;;;6246340;28;20056;-80
2023/06/30 14:26:40;;;;;;;18.05;14.27;;;;;;;;;;6249040;28;20050;-78
2023/06/30 14:29:42;;;;;;;17.80;12.70;;;;;;;;;;6245558;28;20067;-78
2023/06/30 14:32:45;;;;;;;15.32;12.63;;;;;;;;;;6244924;28;20049;-78
2023/06/30 14:35:47;;;;;;;14.35;11.80;;;;;;;;;;6247760;28;20049;-82
2023/06/30 14:38:48;;;;;;;14.25;12.77;;;;;;;;;;6244038;28;20037;-78
2023/06/30 14:41:49;;;;;;;15.65;13.13;;;;;;;;;;6251087;28;20057;-78
2023/06/30 14:44:51;;;;;;;15.52;12.38;;;;;;;;;;6243822;28;20261;-78
2023/06/30 14:47:54;;;;;;;15.63;11.68;;;;;;;;;;6245116;28;20341;-80
2023/06/30 14:50:55;;;;;;;15.70;12.05;;;;;;;;;;6246131;28;20341;-79
2023/06/30 14:53:57;;;;;;;16.52;11.95;;;;;;;;;;6246303;28;20049;-79
2023/06/30 14:56:58;;;;;;;13.27;11.45;;;;;;;;;;6244019;28;20360;-79
2023/06/30 14:59:59;;;;;;;13.18;11.43;;;;;;;;;;6242145;28;20050;-79
2023/06/30 15:03:04;;;;;;;12.60;11.15;;;;;;;;;;6244178;28;20057;-79
2023/06/30 15:06:05;;;;;;;15.27;11.85;;;;;;;;;;6245472;28;20064;-78
2023/06/30 15:09:07;;;;;;;12.98;10.43;;;;;;;;;;6246143;28;20049;-81
2023/06/30 15:12:08;;;;;;;11.88;9.63;;;;;;;;;;6246881;28;20092;-79
2023/06/30 15:15:10;;;;;;;11.80;8.68;;;;;;;;;;6244132;28;20042;-79
2023/06/30 15:18:13;;;;;;;12.00;9.15;;;;;;;;;;6243866;28;20045;-78
2023/06/30 15:21:14;;;;;;;10.60;9.55;;;;;;;;;;6248815;28;20064;-76
2023/06/30 15:24:16;;;;;;;13.15;8.40;;;;;;;;;;6246772;28;20334;-75
2023/06/30 15:27:17;;;;;;;8.93;8.07;;;;;;;;;;6251931;28;20064;-77
2023/06/30 15:30:19;;;;;;;11.57;8.70;;;;;;;;;;6250101;28;20054;-77
2023/06/30 15:33:22;;;;;;;10.23;8.68;;;;;;;;;;6244454;28;20050;-79
2023/06/30 15:36:23;;;;;;;13.67;9.97;;;;;;;;;;6245524;28;20089;-77
2023/06/30 15:39:25;;;;;;;9.55;7.97;;;;;;;;;;6247887;28;20700;-77
2023/06/30 15:42:26;;;;;;;11.52;7.95;;;;;;;;;;6244870;28;20073;-77
2023/06/30 15:45:28;;;;;;;11.55;10.05;;;;;;;;;;6245800;28;20117;-84
2023/06/30 15:48:30;;;;;;;12.60;9.88;;;;;;;;;;6244900;28;20053;-76
2023/06/30 15:51:32;;;;;;;12.35;9.90;;;;;;;;;;6243240;28;20053;-80
2023/06/30 15:54:34;;;;;;;11.05;9.32;;;;;;;;;;6246010;28;20210;-76
2023/06/30 15:57:36;;;;;;;12.57;8.93;;;;;;;;;;6245031;28;20103;-76
2023/06/30 16:00:37;;;;;;;11.05;8.93;;;;;;;;;;6246702;28;20112;-75
2023/06/30 16:03:40;;;;;;;12.05;8.43;;;;;;;;;;6244661;28;20045;-77
2023/06/30 16:06:42;;;;;;;10.57;9.43;;;;;;;;;;6243943;28;20062;-75
2023/06/30 16:09:43;;;;;;;11.95;9.00;;;;;;;;;;6244233;28;20053;-74
2023/06/30 16:12:45;;;;;;;11.40;8.90;;;;;;;;;;6242456;28;20068;-75
2023/06/30 16:15:47;;;;;;;11.13;8.65;;;;;;;;;;6239929;28;20046;-75
2023/06/30 16:18:50;;;;;;;11.25;9.00;;;;;;;;;;6240952;28;20057;-74
2023/06/30 16:21:51;;;;;;;10.95;9.00;;;;;;;;;;6245289;28;20053;-74
2023/06/30 16:24:52;;;;;;;8.98;7.93;;;;;;;;;;6246147;28;20131;-75
2023/06/30 16:27:54;;;;;;;9.68;7.50;;;;;;;;;;6241910;28;20119;-75
2023/06/30 16:30:55;;;;;;;10.27;7.95;;;;;;;;;;6243267;28;20263;-80
2023/06/30 16:33:59;;;;;;;10.88;7.65;;;;;;;;;;6242409;28;20064;-77
2023/06/30 16:37:01;;;;;;;8.63;7.55;;;;;;;;;;6242547;28;20070;-78
2023/06/30 16:40:02;;;;;;;12.55;9.15;;;;;;;;;;6244279;28;20065;-80
2023/06/30 16:43:04;;;;;;;10.73;9.07;;;;;;;;;;6243063;28;20079;-79
2023/06/30 16:46:05;;;;;;;9.15;8.20;;;;;;;;;;6242134;28;20329;-79
2023/06/30 16:49:09;;;;;;;10.90;9.23;;;;;;;;;;6244165;28;20053;-75
2023/06/30 16:52:11;;;;;;;11.00;8.88;;;;;;;;;;6240404;28;20103;-78
2023/06/30 16:55:12;;;;;;;11.70;9.45;;;;;;;;;;6244482;28;20057;-75
2023/06/30 16:58:14;;;;;;;12.43;10.00;;;;;;;;;;6242162;28;20250;-74
2023/06/30 17:01:15;;;;;;;11.57;10.00;;;;;;;;;;6241713;28;20056;-74
2023/06/30 17:04:18;;;;;;;9.25;8.25;;;;;;;;;;6242270;28;20054;-78
2023/06/30 17:07:20;;;;;;;11.18;9.63;;;;;;;;;;6240393;28;20061;-78
2023/06/30 17:10:21;;;;;;;10.63;9.45;;;;;;;;;;6241401;28;20227;-80
2023/06/30 17:13:23;;;;;;;11.25;9.55;;;;;;;;;;6239806;28;20053;-79
2023/06/30 17:16:24;;;;;;;10.70;9.57;;;;;;;;;;6240761;28;20053;-78
2023/06/30 17:19:28;;;;;;;13.38;9.27;;;;;;;;;;6238079;28;20231;-77
2023/06/30 17:22:29;;;;;;;;;;;;;;;;;;6245697;28;20104;-77
2023/06/30 17:25:31;;;;;;;9.93;7.85;;;;;;;;;;6242854;28;21595;-76
2023/06/30 17:28:32;;;;;;;8.50;7.07;;;;;;;;;;6238874;28;20050;-77
2023/06/30 17:31:34;;;;;;;10.00;8.05;;;;;;;;;;6239802;28;20048;-76
2023/06/30 17:34:37;;;;;;;11.27;8.75;;;;;;;;;;6241064;28;20053;-77
2023/06/30 17:37:38;;;;;;;10.80;9.13;;;;;;;;;;6243765;28;20363;-81
2023/06/30 17:40:39;;;;;;;11.57;9.27;;;;;;;;;;6242391;28;20065;-78
2023/06/30 17:43:41;;;;;;;10.80;9.23;;;;;;;;;;6245252;28;20076;-78
2023/06/30 17:46:43;;;;;;;11.60;8.43;;;;;;;;;;6241346;28;20053;-77
2023/06/30 17:49:47;;;;;;;12.50;9.63;;;;;;;;;;6242266;28;20045;-76
2023/06/30 17:52:48;;;;;;;13.27;10.00;;;;;;;;;;6241256;28;20052;-78
2023/06/30 17:55:50;;;;;;;12.02;10.27;;;;;;;;;;6243719;28;20060;-79